Time;durP1;ratioP1;P1;durP2;ratioP2;P2;SDS_P1;SDS_P2;PMS_P1;PMS_P2;Temp;Humidity;BMP_temperature;BMP_pressure;BME280_temperature;BME280_humidity;BME280_pressure;Samples;Min_cycle;Max_cycle;Signal;HPM_P1;HPM_P2
2023/02/20 00:02:18;;;;;;;3.90;2.85;;;;;;;;;;4983716;28;20581;-65
2023/02/20 00:04:43;;;;;;;3.97;2.80;;;;;;;;;;5005126;28;20034;-70
2023/02/20 00:07:08;;;;;;;3.65;2.70;;;;;;;;;;5007879;28;20056;-67
2023/02/20 00:09:33;;;;;;;4.05;2.83;;;;;;;;;;5008410;28;20049;-68
2023/02/20 00:11:59;;;;;;;3.43;2.83;;;;;;;;;;5006704;28;20041;-70
2023/02/20 00:14:24;;;;;;;3.83;2.85;;;;;;;;;;5007805;28;20650;-70
2023/02/20 00:16:49;;;;;;;3.70;2.78;;;;;;;;;;4977528;28;20065;-65
2023/02/20 00:19:15;;;;;;;3.40;2.37;;;;;;;;;;4986038;28;20034;-68
2023/02/20 00:21:46;;;;;;;4.05;3.10;;;;;;;;;;5009004;28;20292;-68
2023/02/20 00:24:12;;;;;;;3.67;2.58;;;;;;;;;;5007677;28;20403;-69
2023/02/20 00:26:37;;;;;;;3.28;2.70;;;;;;;;;;5007993;28;20033;-66
2023/02/20 00:29:02;;;;;;;3.67;3.00;;;;;;;;;;4986120;28;20422;-70
2023/02/20 00:31:28;;;;;;;4.07;2.90;;;;;;;;;;5005168;28;20292;-69
2023/02/20 00:33:53;;;;;;;3.50;2.63;;;;;;;;;;5007035;28;20280;-69
2023/02/20 00:36:19;;;;;;;4.32;3.15;;;;;;;;;;4986038;28;20743;-68
2023/02/20 00:38:44;;;;;;;3.50;2.65;;;;;;;;;;5007288;28;20038;-66
2023/02/20 00:41:11;;;;;;;4.22;2.80;;;;;;;;;;4987391;28;20038;-68
2023/02/20 00:43:37;;;;;;;4.05;3.00;;;;;;;;;;4980655;28;20101;-69
2023/02/20 00:46:03;;;;;;;3.92;2.97;;;;;;;;;;4975037;28;20046;-69
2023/02/20 00:48:28;;;;;;;3.95;2.85;;;;;;;;;;4982751;28;20023;-69
2023/02/20 00:50:53;;;;;;;3.70;2.65;;;;;;;;;;4988558;28;20503;-70
2023/02/20 00:53:18;;;;;;;3.70;2.57;;;;;;;;;;4970957;28;20037;-68
2023/02/20 00:55:44;;;;;;;3.60;2.63;;;;;;;;;;4989220;28;20289;-66
2023/02/20 00:58:09;;;;;;;3.93;2.87;;;;;;;;;;4987650;28;20312;-69
2023/02/20 01:00:34;;;;;;;3.88;2.83;;;;;;;;;;4982871;28;20286;-72
2023/02/20 01:03:00;;;;;;;4.38;2.90;;;;;;;;;;4989436;28;20101;-68
2023/02/20 01:05:25;;;;;;;3.55;2.70;;;;;;;;;;4981626;28;20058;-70
2023/02/20 01:07:50;;;;;;;3.72;2.80;;;;;;;;;;4992455;28;20108;-66
2023/02/20 01:10:15;;;;;;;4.67;2.63;;;;;;;;;;4991362;28;20038;-65
2023/02/20 01:12:41;;;;;;;4.40;3.10;;;;;;;;;;4983245;28;20380;-67
2023/02/20 01:15:06;;;;;;;3.78;2.80;;;;;;;;;;4974601;28;20133;-67
2023/02/20 01:17:32;;;;;;;3.45;2.80;;;;;;;;;;4994145;28;20080;-67
2023/02/20 01:19:57;;;;;;;4.50;3.20;;;;;;;;;;4978100;28;20041;-67
2023/02/20 01:22:23;;;;;;;3.40;2.60;;;;;;;;;;5009893;28;20277;-64
2023/02/20 01:24:48;;;;;;;3.85;3.17;;;;;;;;;;4989925;28;20034;-71
2023/02/20 01:27:13;;;;;;;4.13;2.92;;;;;;;;;;4977225;28;20742;-67
2023/02/20 01:29:38;;;;;;;3.50;2.90;;;;;;;;;;5011624;28;20026;-70
2023/02/20 01:32:04;;;;;;;3.65;2.80;;;;;;;;;;4991866;28;20473;-64
2023/02/20 01:34:29;;;;;;;3.40;2.67;;;;;;;;;;5016548;28;20033;-68
2023/02/20 01:36:55;;;;;;;3.80;2.95;;;;;;;;;;5029084;28;20307;-65
2023/02/20 01:39:22;;;;;;;3.60;2.80;;;;;;;;;;4992908;28;20045;-68
2023/02/20 01:41:48;;;;;;;4.10;2.72;;;;;;;;;;5005566;28;20055;-63
2023/02/20 01:44:17;;;;;;;4.38;2.85;;;;;;;;;;5027949;28;20565;-67
2023/02/20 01:46:43;;;;;;;3.53;2.90;;;;;;;;;;5012181;28;20042;-70
2023/02/20 01:49:10;;;;;;;3.17;2.70;;;;;;;;;;4999644;28;20356;-65
2023/02/20 01:51:37;;;;;;;3.95;2.92;;;;;;;;;;4973265;28;20079;-63
2023/02/20 01:54:03;;;;;;;4.20;2.95;;;;;;;;;;4990078;28;20045;-63
2023/02/20 01:56:28;;;;;;;4.70;2.95;;;;;;;;;;5017020;28;20049;-68
2023/02/20 01:58:53;;;;;;;3.35;2.55;;;;;;;;;;5012563;28;20040;-67
2023/02/20 02:01:19;;;;;;;4.27;3.10;;;;;;;;;;5006055;28;20037;-65
2023/02/20 02:03:45;;;;;;;3.50;2.88;;;;;;;;;;5009791;28;20296;-67
2023/02/20 02:06:11;;;;;;;4.13;2.83;;;;;;;;;;5029950;28;20033;-67
2023/02/20 02:08:36;;;;;;;3.63;2.78;;;;;;;;;;5011756;28;20045;-68
2023/02/20 02:11:03;;;;;;;3.78;3.13;;;;;;;;;;5000562;28;20034;-61
2023/02/20 02:13:31;;;;;;;4.03;3.10;;;;;;;;;;5025287;28;20069;-68
2023/02/20 02:15:59;;;;;;;3.55;2.78;;;;;;;;;;4988191;28;20092;-69
2023/02/20 02:18:34;;;;;;;4.07;3.05;;;;;;;;;;5008777;28;20034;-70
2023/02/20 02:21:08;;;;;;;3.38;3.00;;;;;;;;;;5026704;28;20041;-64
2023/02/20 02:23:42;;;;;;;4.03;3.15;;;;;;;;;;4995157;28;20044;-65
2023/02/20 02:26:26;;;;;;;3.78;2.88;;;;;;;;;;5028511;28;20052;-62
2023/02/20 02:29:10;;;;;;;3.40;2.92;;;;;;;;;;5028666;28;20796;-70
2023/02/20 02:31:35;;;;;;;5.03;3.28;;;;;;;;;;5012073;28;20049;-69
2023/02/20 02:34:03;;;;;;;3.27;2.70;;;;;;;;;;5010569;28;20033;-69
2023/02/20 02:36:47;;;;;;;3.55;2.80;;;;;;;;;;5011989;28;20295;-68
2023/02/20 02:39:32;;;;;;;3.50;2.70;;;;;;;;;;5017909;28;20120;-69
2023/02/20 02:41:59;;;;;;;3.65;2.90;;;;;;;;;;5022299;28;20053;-66
2023/02/20 02:44:33;;;;;;;3.58;3.05;;;;;;;;;;5033827;28;20044;-66
2023/02/20 02:47:00;;;;;;;3.97;2.90;;;;;;;;;;5035320;28;20105;-67
2023/02/20 02:49:32;;;;;;;4.10;3.03;;;;;;;;;;5015525;28;20110;-70
2023/02/20 02:51:57;;;;;;;3.60;3.13;;;;;;;;;;5016097;28;20037;-67
2023/02/20 02:54:27;;;;;;;3.65;2.80;;;;;;;;;;5016508;28;20092;-67
2023/02/20 02:56:52;;;;;;;3.95;2.70;;;;;;;;;;5032864;28;20049;-62
2023/02/20 02:59:22;;;;;;;3.78;2.70;;;;;;;;;;4995411;28;20066;-66
2023/02/20 03:01:49;;;;;;;4.18;3.13;;;;;;;;;;5005752;28;20112;-65
2023/02/20 03:04:22;;;;;;;3.65;3.10;;;;;;;;;;5016416;28;20072;-67
2023/02/20 03:06:47;;;;;;;3.90;3.10;;;;;;;;;;5012236;28;20060;-68
2023/02/20 03:09:24;;;;;;;3.20;2.70;;;;;;;;;;5011814;28;20679;-67
2023/02/20 03:11:50;;;;;;;4.63;2.95;;;;;;;;;;5020149;28;20050;-66
2023/02/20 03:17:00;;;;;;;3.53;2.60;;;;;;;;;;4986081;28;20052;-68
2023/02/20 03:19:27;;;;;;;3.57;2.80;;;;;;;;;;5025707;28;20038;-69
2023/02/20 03:21:52;;;;;;;4.32;3.42;;;;;;;;;;4991383;28;20639;-65
2023/02/20 03:24:18;;;;;;;3.20;2.78;;;;;;;;;;4993850;28;20112;-67
2023/02/20 03:26:43;;;;;;;2.88;2.58;;;;;;;;;;5007920;28;20659;-67
2023/02/20 03:29:23;;;;;;;3.73;2.70;;;;;;;;;;5010639;28;20052;-69
2023/02/20 03:45:34;;;;;;;3.63;2.70;;;;;;;;;;5020599;28;20655;-60
2023/02/20 03:48:01;;;;;;;3.10;2.25;;;;;;;;;;5002501;28;20034;-63
2023/02/20 03:50:26;;;;;;;3.22;2.60;;;;;;;;;;5009971;28;20029;-64
2023/02/20 03:52:51;;;;;;;3.77;2.50;;;;;;;;;;4994155;28;20532;-71
2023/02/20 03:55:16;;;;;;;3.80;2.97;;;;;;;;;;4994317;28;21065;-66
2023/02/20 03:57:43;;;;;;;3.22;2.47;;;;;;;;;;5011914;28;20350;-66
2023/02/20 04:00:10;;;;;;;3.30;3.00;;;;;;;;;;4995351;28;20509;-70
2023/02/20 04:02:36;;;;;;;3.63;2.80;;;;;;;;;;5009426;28;20036;-70
2023/02/20 04:05:06;;;;;;;3.53;2.80;;;;;;;;;;5026185;28;20026;-64
2023/02/20 04:07:41;;;;;;;3.15;2.63;;;;;;;;;;4993538;28;20724;-69
2023/02/20 04:10:07;;;;;;;3.10;2.55;;;;;;;;;;4982713;28;20029;-66
2023/02/20 04:12:33;;;;;;;3.63;2.72;;;;;;;;;;4994986;28;20033;-66
2023/02/20 04:14:59;;;;;;;3.67;2.55;;;;;;;;;;5010785;28;20048;-68
2023/02/20 04:17:29;;;;;;;3.13;2.60;;;;;;;;;;5011323;28;20045;-65
2023/02/20 04:19:54;;;;;;;3.13;2.65;;;;;;;;;;4998606;28;20141;-68
2023/02/20 04:22:21;;;;;;;2.85;2.53;;;;;;;;;;5010991;28;20121;-66
2023/02/20 04:24:47;;;;;;;2.80;2.50;;;;;;;;;;4993640;28;20041;-65
2023/02/20 04:27:12;;;;;;;4.53;2.70;;;;;;;;;;5012480;28;20036;-66
2023/02/20 04:29:37;;;;;;;3.45;2.58;;;;;;;;;;4993357;28;20318;-69
2023/02/20 04:32:03;;;;;;;3.20;2.70;;;;;;;;;;5025593;28;20041;-64
2023/02/20 04:34:28;;;;;;;3.03;2.63;;;;;;;;;;4993708;28;20861;-67
2023/02/20 04:37:03;;;;;;;2.80;2.30;;;;;;;;;;4999141;28;20061;-69
2023/02/20 04:39:28;;;;;;;3.03;2.55;;;;;;;;;;5010300;28;20033;-67
2023/02/20 04:41:53;;;;;;;3.25;2.58;;;;;;;;;;5027158;28;20038;-69
2023/02/20 04:44:31;;;;;;;3.75;2.50;;;;;;;;;;5010045;28;20030;-67
2023/02/20 04:47:00;;;;;;;3.00;2.50;;;;;;;;;;5009540;28;20045;-68
2023/02/20 04:49:25;;;;;;;3.28;2.53;;;;;;;;;;5009821;28;20088;-64
2023/02/20 04:51:50;;;;;;;2.87;2.30;;;;;;;;;;5001042;28;20203;-66
2023/02/20 04:54:16;;;;;;;3.20;2.30;;;;;;;;;;5014771;28;20364;-69
2023/02/20 04:56:41;;;;;;;3.33;2.30;;;;;;;;;;4973428;28;20296;-66
2023/02/20 04:59:06;;;;;;;3.20;2.20;;;;;;;;;;5008192;28;20296;-67
2023/02/20 05:01:31;;;;;;;2.83;2.40;;;;;;;;;;4997176;28;20884;-66
2023/02/20 05:03:57;;;;;;;2.80;2.40;;;;;;;;;;5010379;28;20288;-68
2023/02/20 05:06:22;;;;;;;2.17;1.83;;;;;;;;;;4995400;28;20283;-65
2023/02/20 05:08:47;;;;;;;4.50;2.17;;;;;;;;;;5009895;28;20272;-67
2023/02/20 05:11:12;;;;;;;2.90;2.30;;;;;;;;;;5003252;28;20136;-65
2023/02/20 05:13:38;;;;;;;3.33;2.00;;;;;;;;;;5004463;28;20056;-70
2023/02/20 05:16:03;;;;;;;3.23;2.23;;;;;;;;;;4997120;28;20054;-71
2023/02/20 05:18:28;;;;;;;3.00;2.30;;;;;;;;;;5013512;28;20343;-69
2023/02/20 05:23:38;;;;;;;3.08;2.20;;;;;;;;;;5015480;28;20095;-63
2023/02/20 05:26:07;;;;;;;2.73;2.00;;;;;;;;;;5007601;28;20539;-68
2023/02/20 05:28:32;;;;;;;2.73;2.10;;;;;;;;;;5007095;28;20277;-68
2023/02/20 05:30:57;;;;;;;2.90;2.30;;;;;;;;;;4982862;28;20560;-70
2023/02/20 05:33:22;;;;;;;2.38;2.05;;;;;;;;;;4981475;28;20576;-68
2023/02/20 05:35:48;;;;;;;2.90;2.20;;;;;;;;;;4989371;28;20039;-69
2023/02/20 05:38:17;;;;;;;2.97;2.00;;;;;;;;;;4986910;28;20374;-71
2023/02/20 05:40:42;;;;;;;3.50;2.08;;;;;;;;;;5020015;28;20029;-67
2023/02/20 05:43:07;;;;;;;2.03;1.70;;;;;;;;;;5013839;28;20038;-70
2023/02/20 05:45:33;;;;;;;3.17;1.90;;;;;;;;;;4978362;28;20384;-64
2023/02/20 05:47:58;;;;;;;2.80;2.07;;;;;;;;;;4989133;28;20808;-67
2023/02/20 05:50:23;;;;;;;2.07;1.77;;;;;;;;;;4992968;28;20677;-68
2023/02/20 05:52:49;;;;;;;2.13;1.73;;;;;;;;;;5009373;28;20297;-65
2023/02/20 05:55:14;;;;;;;2.63;1.90;;;;;;;;;;4997953;28;20044;-67
2023/02/20 05:57:39;;;;;;;3.08;2.00;;;;;;;;;;5017690;28;20380;-63
2023/02/20 06:00:05;;;;;;;2.10;1.73;;;;;;;;;;4991316;28;20041;-66
2023/02/20 06:02:32;;;;;;;2.25;1.70;;;;;;;;;;5019942;28;20036;-70
2023/02/20 06:04:57;;;;;;;2.15;1.70;;;;;;;;;;5021885;28;20036;-68
2023/02/20 06:07:23;;;;;;;2.40;1.90;;;;;;;;;;5019284;28;20045;-67
2023/02/20 06:09:48;;;;;;;3.20;1.83;;;;;;;;;;5040077;28;20277;-68
2023/02/20 06:12:13;;;;;;;4.55;1.95;;;;;;;;;;5005068;28;20842;-67
2023/02/20 06:14:39;;;;;;;11.47;2.67;;;;;;;;;;5041486;28;20048;-68
2023/02/20 06:17:04;;;;;;;8.05;2.30;;;;;;;;;;5019445;28;20316;-65
2023/02/20 06:19:29;;;;;;;8.73;2.40;;;;;;;;;;5026064;28;20037;-65
2023/02/20 06:21:57;;;;;;;7.10;2.20;;;;;;;;;;5022220;28;20235;-65
2023/02/20 06:24:22;;;;;;;8.20;2.30;;;;;;;;;;5036182;28;20048;-68
2023/02/20 06:26:48;;;;;;;11.25;2.83;;;;;;;;;;5015279;28;20036;-64
2023/02/20 06:29:13;;;;;;;9.88;2.90;;;;;;;;;;5023208;28;20532;-68
2023/02/20 06:31:38;;;;;;;12.02;2.55;;;;;;;;;;5012742;28;20040;-67
2023/02/20 06:34:05;;;;;;;9.37;2.50;;;;;;;;;;5041524;28;20582;-65
2023/02/20 06:36:30;;;;;;;11.90;2.55;;;;;;;;;;5028831;28;20295;-66
2023/02/20 06:38:56;;;;;;;8.13;2.10;;;;;;;;;;5011545;28;20118;-68
2023/02/20 06:41:21;;;;;;;5.57;2.30;;;;;;;;;;5023264;28;20033;-70
2023/02/20 06:43:46;;;;;;;11.90;2.30;;;;;;;;;;5044898;28;20122;-68
2023/02/20 06:46:12;;;;;;;7.03;2.10;;;;;;;;;;5049016;28;20346;-65
2023/02/20 06:48:44;;;;;;;8.93;2.17;;;;;;;;;;5029423;28;20279;-69
2023/02/20 06:51:09;;;;;;;9.93;2.30;;;;;;;;;;5022882;28;20127;-68
2023/02/20 06:53:37;;;;;;;5.85;2.47;;;;;;;;;;5017987;28;20055;-66
2023/02/20 06:56:05;;;;;;;6.50;2.35;;;;;;;;;;5022287;28;20799;-69
2023/02/20 06:58:30;;;;;;;6.22;2.33;;;;;;;;;;5024836;28;20120;-69
2023/02/20 07:00:56;;;;;;;9.27;2.58;;;;;;;;;;5043039;28;20060;-66
2023/02/20 07:03:21;;;;;;;10.50;2.28;;;;;;;;;;5009635;28;20098;-67
2023/02/20 07:05:46;;;;;;;6.68;2.05;;;;;;;;;;5031278;28;20037;-67
2023/02/20 07:08:11;;;;;;;5.57;2.23;;;;;;;;;;5023867;28;20467;-68
2023/02/20 07:10:37;;;;;;;11.17;2.70;;;;;;;;;;5022390;28;20330;-67
2023/02/20 07:13:04;;;;;;;7.93;2.40;;;;;;;;;;5026140;28;20357;-64
2023/02/20 07:15:30;;;;;;;10.55;2.35;;;;;;;;;;5019787;28;20291;-65
2023/02/20 07:17:55;;;;;;;7.07;2.60;;;;;;;;;;5021021;28;20049;-70
2023/02/20 07:20:20;;;;;;;7.65;2.42;;;;;;;;;;5024458;28;20388;-67
2023/02/20 07:22:50;;;;;;;7.07;2.10;;;;;;;;;;5004944;28;20079;-70
2023/02/20 07:25:15;;;;;;;8.10;2.40;;;;;;;;;;5043198;28;20291;-71
2023/02/20 07:27:40;;;;;;;6.73;2.43;;;;;;;;;;5010765;28;20552;-69
2023/02/20 07:30:06;;;;;;;6.55;2.47;;;;;;;;;;5046087;28;20336;-65
2023/02/20 07:32:31;;;;;;;8.10;2.30;;;;;;;;;;5011035;28;20072;-74
2023/02/20 07:34:56;;;;;;;5.83;2.63;;;;;;;;;;5023300;28;20385;-70
2023/02/20 07:37:21;;;;;;;8.43;2.53;;;;;;;;;;5027083;28;20326;-67
2023/02/20 07:39:47;;;;;;;8.80;2.70;;;;;;;;;;4999541;28;20303;-68
2023/02/20 07:42:12;;;;;;;6.47;2.33;;;;;;;;;;5013330;28;20124;-69
2023/02/20 07:44:37;;;;;;;9.43;2.40;;;;;;;;;;5021648;28;20287;-69
2023/02/20 07:47:03;;;;;;;8.07;2.30;;;;;;;;;;5026725;28;20284;-67
2023/02/20 07:49:28;;;;;;;9.38;2.47;;;;;;;;;;5001338;28;20068;-71
2023/02/20 07:51:53;;;;;;;8.43;2.30;;;;;;;;;;5022941;28;20117;-63
2023/02/20 07:54:18;;;;;;;8.90;2.30;;;;;;;;;;5025968;28;20798;-67
2023/02/20 07:56:44;;;;;;;6.28;2.00;;;;;;;;;;5012596;28;20316;-68
2023/02/20 07:59:09;;;;;;;6.33;2.30;;;;;;;;;;5014121;28;20064;-66
2023/02/20 08:01:34;;;;;;;6.97;2.42;;;;;;;;;;5017619;28;20271;-62
2023/02/20 08:04:00;;;;;;;5.25;1.98;;;;;;;;;;5019396;28;20154;-66
2023/02/20 08:06:25;;;;;;;5.93;2.13;;;;;;;;;;5032763;28;20029;-68
2023/02/20 08:08:50;;;;;;;7.55;2.53;;;;;;;;;;4996207;28;20327;-68
2023/02/20 08:11:16;;;;;;;5.88;2.20;;;;;;;;;;5004875;28;20404;-68
2023/02/20 08:13:43;;;;;;;5.72;2.08;;;;;;;;;;4993890;28;20041;-66
2023/02/20 08:16:08;;;;;;;4.35;2.00;;;;;;;;;;5014991;28;20045;-68
2023/02/20 08:18:33;;;;;;;6.18;2.35;;;;;;;;;;5026881;28;20013;-71
2023/02/20 08:20:59;;;;;;;6.15;2.08;;;;;;;;;;5028701;28;20066;-63
2023/02/20 08:23:24;;;;;;;8.40;2.60;;;;;;;;;;5032180;28;20048;-64
2023/02/20 08:25:50;;;;;;;4.22;2.10;;;;;;;;;;5014847;28;20689;-69
2023/02/20 08:28:16;;;;;;;4.10;1.60;;;;;;;;;;5024300;28;20524;-66
2023/02/20 08:30:41;;;;;;;6.28;1.98;;;;;;;;;;5036129;28;20041;-70
2023/02/20 08:33:06;;;;;;;8.35;2.70;;;;;;;;;;5026107;28;20120;-70
2023/02/20 08:35:35;;;;;;;6.78;2.40;;;;;;;;;;5018968;28;20049;-61
2023/02/20 08:38:20;;;;;;;4.70;1.92;;;;;;;;;;5032239;28;20139;-66
2023/02/20 08:40:45;;;;;;;6.25;2.22;;;;;;;;;;5025931;28;20033;-70
2023/02/20 08:43:11;;;;;;;4.75;2.00;;;;;;;;;;4993821;28;20382;-68
2023/02/20 08:45:36;;;;;;;5.60;2.03;;;;;;;;;;5020738;28;20205;-67
2023/02/20 08:48:01;;;;;;;3.70;1.97;;;;;;;;;;5009805;28;20361;-58
2023/02/20 08:50:27;;;;;;;3.55;1.88;;;;;;;;;;5017514;28;20280;-64
2023/02/20 08:52:52;;;;;;;6.47;1.90;;;;;;;;;;4999736;28;20504;-63
2023/02/20 08:55:17;;;;;;;7.17;2.03;;;;;;;;;;4999186;28;20720;-67
2023/02/20 08:57:43;;;;;;;4.50;1.67;;;;;;;;;;5030703;28;20277;-70
2023/02/20 09:00:09;;;;;;;4.18;1.90;;;;;;;;;;5004980;28;20041;-69
2023/02/20 09:02:34;;;;;;;6.05;1.80;;;;;;;;;;5001008;28;20029;-73
2023/02/20 09:04:59;;;;;;;6.18;1.70;;;;;;;;;;5018290;28;20387;-67
2023/02/20 09:07:25;;;;;;;5.30;1.97;;;;;;;;;;5019194;28;20044;-70
2023/02/20 09:09:50;;;;;;;3.88;1.80;;;;;;;;;;5010561;28;20789;-60
2023/02/20 09:12:15;;;;;;;6.50;1.80;;;;;;;;;;5005739;28;20043;-71
2023/02/20 09:14:40;;;;;;;4.13;2.30;;;;;;;;;;5016276;28;20044;-67
2023/02/20 09:17:06;;;;;;;3.73;1.80;;;;;;;;;;5004258;28;20284;-63
2023/02/20 09:19:31;;;;;;;5.28;1.83;;;;;;;;;;5038988;28;20298;-71
2023/02/20 09:21:56;;;;;;;4.45;1.77;;;;;;;;;;5027294;28;20151;-68
2023/02/20 09:24:21;;;;;;;3.00;1.80;;;;;;;;;;5015100;28;20098;-73
2023/02/20 09:26:47;;;;;;;5.25;1.70;;;;;;;;;;5012226;28;20048;-65
2023/02/20 09:29:12;;;;;;;4.38;1.73;;;;;;;;;;5018239;28;20041;-68
2023/02/20 09:31:37;;;;;;;3.75;1.80;;;;;;;;;;5002654;28;20116;-73
2023/02/20 09:34:03;;;;;;;3.80;1.70;;;;;;;;;;5017847;28;20064;-70
2023/02/20 09:36:28;;;;;;;3.13;1.52;;;;;;;;;;5020161;28;20523;-64
2023/02/20 09:38:53;;;;;;;3.88;1.90;;;;;;;;;;5029592;28;20069;-67
2023/02/20 09:41:37;;;;;;;2.95;1.40;;;;;;;;;;4998281;28;20903;-64
2023/02/20 09:44:24;;;;;;;3.33;1.63;;;;;;;;;;5038359;28;20049;-63
2023/02/20 09:46:49;;;;;;;4.45;1.80;;;;;;;;;;5019264;28;20132;-71
2023/02/20 09:49:16;;;;;;;3.03;1.60;;;;;;;;;;5029638;28;20426;-64
2023/02/20 09:51:43;;;;;;;4.18;1.35;;;;;;;;;;5035596;28;20697;-59
2023/02/20 09:54:16;;;;;;;2.70;1.30;;;;;;;;;;5002209;28;20033;-69
2023/02/20 09:56:44;;;;;;;3.70;1.70;;;;;;;;;;5023353;28;20048;-64
2023/02/20 09:59:12;;;;;;;2.40;1.40;;;;;;;;;;5043386;28;20059;-66
2023/02/20 10:01:39;;;;;;;3.60;1.60;;;;;;;;;;5038280;28;20044;-63
2023/02/20 10:04:12;;;;;;;3.00;1.55;;;;;;;;;;5029784;28;20579;-64
2023/02/20 10:06:37;;;;;;;3.72;1.52;;;;;;;;;;5013480;28;20065;-67
2023/02/20 10:09:03;;;;;;;2.75;1.40;;;;;;;;;;5023644;28;20060;-64
2023/02/20 10:11:38;;;;;;;2.70;1.27;;;;;;;;;;5015599;28;20425;-69
2023/02/20 10:14:22;;;;;;;2.63;1.27;;;;;;;;;;5013231;28;20094;-70
2023/02/20 10:16:54;;;;;;;3.20;1.40;;;;;;;;;;5038633;28;20068;-62
2023/02/20 10:19:19;;;;;;;3.20;1.73;;;;;;;;;;5023645;28;20033;-67
2023/02/20 10:22:05;;;;;;;3.57;1.40;;;;;;;;;;5031917;28;20048;-66
2023/02/20 10:24:49;;;;;;;3.22;1.42;;;;;;;;;;5018794;28;20288;-69
2023/02/20 10:27:19;;;;;;;2.15;1.15;;;;;;;;;;5013398;28;20033;-62
2023/02/20 10:29:45;;;;;;;3.17;1.52;;;;;;;;;;5018354;28;20112;-66
2023/02/20 10:32:15;;;;;;;2.05;1.40;;;;;;;;;;5014345;28;20110;-70
2023/02/20 10:35:01;;;;;;;2.72;1.20;;;;;;;;;;5029097;28;20039;-68
2023/02/20 10:37:28;;;;;;;3.25;1.10;;;;;;;;;;5011665;28;20057;-69
2023/02/20 10:40:01;;;;;;;2.17;1.20;;;;;;;;;;5028090;28;20036;-66
2023/02/20 10:42:37;;;;;;;3.08;1.20;;;;;;;;;;5032366;28;20029;-71
2023/02/20 10:45:06;;;;;;;2.15;1.20;;;;;;;;;;5043451;28;20037;-69
2023/02/20 10:47:31;;;;;;;2.33;1.10;;;;;;;;;;5038116;28;20174;-67
2023/02/20 10:49:57;;;;;;;2.93;1.37;;;;;;;;;;5044726;28;20140;-66
2023/02/20 10:52:28;;;;;;;2.50;1.02;;;;;;;;;;4997414;28;20384;-63
2023/02/20 10:55:10;;;;;;;3.42;1.20;;;;;;;;;;5031367;28;20056;-62
2023/02/20 10:57:36;;;;;;;2.17;1.13;;;;;;;;;;5020468;28;20045;-63
2023/02/20 11:00:05;;;;;;;2.92;1.17;;;;;;;;;;5009309;28;20052;-63
2023/02/20 11:02:34;;;;;;;2.58;1.00;;;;;;;;;;5028648;28;20033;-69
2023/02/20 11:05:06;;;;;;;2.33;1.00;;;;;;;;;;5012502;28;20556;-69
2023/02/20 11:07:31;;;;;;;2.60;1.30;;;;;;;;;;5012068;28;20040;-63
2023/02/20 11:09:56;;;;;;;1.70;0.97;;;;;;;;;;5021620;28;20052;-69
2023/02/20 11:12:41;;;;;;;2.47;1.30;;;;;;;;;;5048105;28;20279;-62
2023/02/20 11:15:08;;;;;;;2.17;1.00;;;;;;;;;;5009364;28;20306;-72
2023/02/20 11:17:33;;;;;;;3.38;1.20;;;;;;;;;;5008196;28;20045;-64
2023/02/20 11:19:59;;;;;;;2.37;1.20;;;;;;;;;;5012315;28;20124;-68
2023/02/20 11:22:40;;;;;;;1.58;0.85;;;;;;;;;;5028845;28;20252;-69
2023/02/20 11:25:16;;;;;;;2.30;0.98;;;;;;;;;;5038375;28;20100;-64
2023/02/20 11:27:41;;;;;;;2.60;1.00;;;;;;;;;;5015101;28;20029;-72
2023/02/20 11:30:30;;;;;;;1.30;0.85;;;;;;;;;;5020290;28;20512;-75
2023/02/20 11:33:03;;;;;;;1.90;1.10;;;;;;;;;;5032230;28;20037;-63
2023/02/20 11:35:31;;;;;;;2.58;1.15;;;;;;;;;;5031186;28;20045;-72
2023/02/20 11:38:16;;;;;;;2.25;0.90;;;;;;;;;;5015961;28;20073;-72
2023/02/20 11:40:41;;;;;;;2.25;1.00;;;;;;;;;;5035673;28;20048;-69
2023/02/20 11:43:12;;;;;;;1.83;1.10;;;;;;;;;;5008165;28;20041;-73
2023/02/20 11:45:38;;;;;;;1.80;0.90;;;;;;;;;;5044904;28;20064;-73
2023/02/20 11:48:13;;;;;;;1.85;0.95;;;;;;;;;;5025476;28;20053;-69
2023/02/20 11:50:39;;;;;;;1.98;1.10;;;;;;;;;;5044128;28;20109;-66
2023/02/20 11:53:06;;;;;;;1.98;0.90;;;;;;;;;;5036947;28;20036;-68
2023/02/20 11:55:32;;;;;;;1.45;0.80;;;;;;;;;;5027262;28;20056;-67
2023/02/20 11:57:57;;;;;;;3.25;0.95;;;;;;;;;;5040752;28;20768;-63
2023/02/20 12:00:22;;;;;;;1.90;0.90;;;;;;;;;;5017991;28;20029;-63
2023/02/20 12:02:52;;;;;;;1.30;0.80;;;;;;;;;;5039113;28;20825;-67
2023/02/20 12:05:18;;;;;;;1.90;0.90;;;;;;;;;;5027253;28;20331;-62
2023/02/20 12:07:44;;;;;;;1.60;0.90;;;;;;;;;;5025468;28;20076;-68
2023/02/20 12:10:09;;;;;;;2.85;1.00;;;;;;;;;;5028224;28;20478;-64
2023/02/20 12:12:34;;;;;;;1.43;0.93;;;;;;;;;;5046632;28;20147;-67
2023/02/20 12:15:01;;;;;;;2.30;1.17;;;;;;;;;;5046536;28;20287;-69
2023/02/20 12:17:34;;;;;;;1.80;0.93;;;;;;;;;;5024466;28;20051;-70
2023/02/20 12:20:08;;;;;;;1.50;0.70;;;;;;;;;;5042455;28;20469;-65
2023/02/20 12:22:36;;;;;;;1.73;0.80;;;;;;;;;;5043401;28;20433;-64
2023/02/20 12:25:09;;;;;;;1.60;0.70;;;;;;;;;;5038252;28;20040;-70
2023/02/20 12:27:40;;;;;;;1.88;0.90;;;;;;;;;;5025323;28;20037;-67
2023/02/20 12:30:06;;;;;;;1.45;0.60;;;;;;;;;;5038742;28;20562;-67
2023/02/20 12:32:51;;;;;;;1.40;0.70;;;;;;;;;;5035551;28;20029;-65
2023/02/20 12:35:27;;;;;;;1.35;0.70;;;;;;;;;;5020812;28;20030;-68
2023/02/20 12:37:52;;;;;;;1.75;0.80;;;;;;;;;;5028947;28;20079;-62
2023/02/20 12:40:37;;;;;;;2.07;0.90;;;;;;;;;;5040071;28;20034;-66
2023/02/20 12:43:09;;;;;;;1.25;0.60;;;;;;;;;;5026194;28;20328;-64
2023/02/20 12:45:34;;;;;;;2.00;0.90;;;;;;;;;;5025080;28;20126;-65
2023/02/20 12:48:19;;;;;;;1.40;0.63;;;;;;;;;;5026175;28;20091;-67
2023/02/20 12:50:47;;;;;;;2.08;0.90;;;;;;;;;;4988483;28;20123;-65
2023/02/20 12:53:15;;;;;;;1.55;0.80;;;;;;;;;;5017022;28;20041;-65
2023/02/20 12:55:53;;;;;;;1.83;0.70;;;;;;;;;;5001518;28;20468;-66
2023/02/20 12:58:24;;;;;;;1.20;0.75;;;;;;;;;;5030452;28;20168;-67
2023/02/20 13:00:51;;;;;;;1.40;0.80;;;;;;;;;;5029185;28;20029;-63
2023/02/20 13:03:22;;;;;;;1.23;0.77;;;;;;;;;;5028935;28;20040;-63
2023/02/20 13:05:48;;;;;;;1.27;0.68;;;;;;;;;;5023355;28;20164;-64
2023/02/20 13:08:25;;;;;;;1.40;0.90;;;;;;;;;;5012095;28;20053;-67
2023/02/20 13:11:01;;;;;;;2.05;0.90;;;;;;;;;;5032851;28;21017;-67
2023/02/20 13:13:31;;;;;;;2.08;0.77;;;;;;;;;;5048063;28;20041;-66
2023/02/20 13:15:58;;;;;;;1.27;0.77;;;;;;;;;;5028073;28;20224;-66
2023/02/20 13:18:42;;;;;;;1.27;0.70;;;;;;;;;;5012184;28;20111;-64
2023/02/20 13:21:12;;;;;;;3.53;0.85;;;;;;;;;;5011849;28;20042;-63
2023/02/20 13:23:37;;;;;;;1.58;0.80;;;;;;;;;;5011313;28;20049;-66
2023/02/20 13:26:23;;;;;;;1.63;0.77;;;;;;;;;;5032165;28;20631;-66
2023/02/20 13:28:48;;;;;;;1.27;0.60;;;;;;;;;;5030883;28;20045;-67
2023/02/20 13:31:17;;;;;;;1.58;0.80;;;;;;;;;;5031457;28;20041;-68
2023/02/20 13:33:43;;;;;;;1.70;0.70;;;;;;;;;;5028786;28;20037;-62
2023/02/20 13:36:36;;;;;;;1.90;0.80;;;;;;;;;;5011672;28;20075;-63
2023/02/20 13:39:19;;;;;;;1.38;0.70;;;;;;;;;;5029417;28;20038;-61
2023/02/20 13:41:54;;;;;;;1.20;0.70;;;;;;;;;;5034413;28;20239;-65
2023/02/20 13:44:28;;;;;;;1.85;0.60;;;;;;;;;;5033165;28;20037;-61
2023/02/20 13:46:57;;;;;;;1.45;0.70;;;;;;;;;;5035722;28;20037;-65
2023/02/20 13:49:41;;;;;;;1.37;0.70;;;;;;;;;;5037342;28;20065;-65
2023/02/20 13:52:25;;;;;;;1.20;0.50;;;;;;;;;;5034936;28;20033;-66
2023/02/20 13:54:51;;;;;;;1.48;0.68;;;;;;;;;;5036080;28;20122;-67
2023/02/20 13:57:16;;;;;;;2.30;0.70;;;;;;;;;;5048414;28;20095;-66
2023/02/20 13:59:42;;;;;;;1.00;0.50;;;;;;;;;;5049144;28;20267;-63
2023/02/20 14:02:14;;;;;;;1.42;0.65;;;;;;;;;;5047893;28;20121;-64
2023/02/20 14:04:50;;;;;;;1.50;0.57;;;;;;;;;;5038483;28;20064;-64
2023/02/20 14:07:16;;;;;;;1.33;0.50;;;;;;;;;;5030370;28;20098;-64
2023/02/20 14:09:41;;;;;;;1.75;0.55;;;;;;;;;;5029694;28;20033;-67
2023/02/20 14:12:07;;;;;;;1.38;0.60;;;;;;;;;;5047206;28;20122;-68
2023/02/20 14:14:34;;;;;;;1.42;0.68;;;;;;;;;;5041897;28;20549;-63
2023/02/20 14:17:13;;;;;;;2.13;0.70;;;;;;;;;;5019484;28;20676;-63
2023/02/20 14:19:42;;;;;;;1.95;0.43;;;;;;;;;;5041483;28;20075;-66
2023/02/20 14:22:33;;;;;;;1.60;0.68;;;;;;;;;;5036261;28;20056;-61
2023/02/20 14:25:19;;;;;;;2.40;0.80;;;;;;;;;;5040119;28;20119;-65
2023/02/20 14:27:44;;;;;;;1.60;0.63;;;;;;;;;;5038311;28;20505;-60
2023/02/20 14:30:14;;;;;;;1.65;0.70;;;;;;;;;;5044150;28;20051;-62
2023/02/20 14:32:43;;;;;;;1.50;0.68;;;;;;;;;;5036176;28;20050;-62
2023/02/20 14:35:27;;;;;;;1.10;0.60;;;;;;;;;;5034581;28;20045;-64
2023/02/20 14:37:58;;;;;;;1.55;0.60;;;;;;;;;;5029464;28;20060;-63
2023/02/20 14:40:31;;;;;;;1.08;0.52;;;;;;;;;;5047141;28;20131;-66
2023/02/20 14:43:00;;;;;;;1.20;0.68;;;;;;;;;;5010695;28;20056;-62
2023/02/20 14:45:26;;;;;;;1.17;0.50;;;;;;;;;;5030615;28;20045;-64
2023/02/20 14:47:52;;;;;;;1.15;0.57;;;;;;;;;;5027057;28;20408;-60
2023/02/20 14:50:20;;;;;;;2.08;0.73;;;;;;;;;;5027628;28;20777;-59
2023/02/20 14:52:45;;;;;;;1.38;0.60;;;;;;;;;;5025093;28;20025;-61
2023/02/20 14:55:14;;;;;;;1.25;0.60;;;;;;;;;;5042347;28;20036;-63
2023/02/20 14:57:39;;;;;;;1.15;0.50;;;;;;;;;;5017931;28;20029;-62
2023/02/20 15:00:19;;;;;;;1.30;0.60;;;;;;;;;;5010891;28;20032;-62
2023/02/20 15:02:44;;;;;;;1.05;0.43;;;;;;;;;;5026708;28;20037;-59
2023/02/20 15:05:11;;;;;;;0.90;0.60;;;;;;;;;;5023257;28;20045;-63
2023/02/20 15:07:37;;;;;;;1.05;0.60;;;;;;;;;;4991980;28;20046;-63
2023/02/20 15:10:03;;;;;;;1.58;0.50;;;;;;;;;;5029553;28;20486;-63